Time;durP1;ratioP1;P1;durP2;ratioP2;P2;SDS_P1;SDS_P2;PMS_P1;PMS_P2;Temp;Humidity;BMP_temperature;BMP_pressure;BME280_temperature;BME280_humidity;BME280_pressure;Samples;Min_cycle;Max_cycle;Signal;HPM_P1;HPM_P2
2023/05/07 03:01:49;;;;;;;0.88;0.88;;;22.10;54.90;;;;;;5332564;23;45829;-60
2023/05/07 03:04:15;;;;;;;0.75;0.70;;;22.00;54.80;;;;;;4948239;28;47574;-60
2023/05/07 03:06:40;;;;;;;1.02;0.80;;;22.10;54.80;;;;;;4970326;28;45048;-60
2023/05/07 03:09:06;;;;;;;1.10;1.00;;;22.10;54.80;;;;;;4964045;28;44741;-61
2023/05/07 03:11:32;;;;;;;0.70;0.70;;;22.10;54.90;;;;;;4960327;28;45075;-60
2023/05/07 03:13:57;;;;;;;1.50;0.80;;;22.10;54.70;;;;;;4955227;28;45094;-60
2023/05/07 03:16:23;;;;;;;0.60;0.60;;;22.10;54.60;;;;;;4964079;28;45443;-59
2023/05/07 03:18:49;;;;;;;0.80;0.70;;;22.10;54.60;;;;;;4948571;28;45335;-58
2023/05/07 03:21:14;;;;;;;1.20;0.63;;;22.10;54.90;;;;;;4971417;28;45173;-62
2023/05/07 03:23:40;;;;;;;0.88;0.80;;;22.10;55.00;;;;;;4951693;28;46183;-62
2023/05/07 03:26:05;;;;;;;0.60;0.60;;;22.10;54.90;;;;;;4966071;28;44847;-60
2023/05/07 03:28:31;;;;;;;0.80;0.80;;;22.10;55.00;;;;;;4955343;28;44953;-61
2023/05/07 03:30:56;;;;;;;0.70;0.70;;;22.10;55.00;;;;;;4950001;28;44919;-61
2023/05/07 03:33:22;;;;;;;0.60;0.60;;;22.00;55.00;;;;;;4976691;28;45579;-58
2023/05/07 03:35:47;;;;;;;0.52;0.52;;;22.00;55.00;;;;;;4961169;28;45097;-59
2023/05/07 03:38:13;;;;;;;0.63;0.63;;;22.10;55.00;;;;;;4972932;28;44980;-57
2023/05/07 03:40:39;;;;;;;0.88;0.70;;;22.10;55.00;;;;;;4947963;28;45203;-59
2023/05/07 03:43:05;;;;;;;1.02;0.93;;;22.10;55.00;;;;;;4936690;28;45108;-58
2023/05/07 03:45:30;;;;;;;0.85;0.80;;;22.10;55.00;;;;;;4945928;28;45177;-61
2023/05/07 03:47:56;;;;;;;0.63;0.63;;;22.00;55.00;;;;;;4957603;28;44887;-57
2023/05/07 03:50:21;;;;;;;0.88;0.73;;;22.00;54.90;;;;;;4964275;28;45063;-61
2023/05/07 03:52:47;;;;;;;0.90;0.70;;;22.00;55.00;;;;;;4936826;28;45483;-59
2023/05/07 03:55:13;;;;;;;0.80;0.65;;;22.00;55.00;;;;;;4970866;28;45243;-59
2023/05/07 03:57:38;;;;;;;0.85;0.80;;;22.00;55.00;;;;;;4951940;28;45038;-60
2023/05/07 04:00:05;;;;;;;0.80;0.75;;;22.00;55.00;;;;;;4954777;28;44935;-64
2023/05/07 04:02:31;;;;;;;0.77;0.60;;;22.00;55.10;;;;;;4929246;28;45234;-60
2023/05/07 04:04:56;;;;;;;0.80;0.80;;;22.00;55.00;;;;;;4950922;28;44992;-60
2023/05/07 04:07:22;;;;;;;0.73;0.73;;;22.00;55.00;;;;;;4961704;28;44885;-60
2023/05/07 04:09:48;;;;;;;1.08;0.65;;;22.00;55.10;;;;;;4966904;28;44978;-61
2023/05/07 04:12:13;;;;;;;0.80;0.80;;;22.00;55.10;;;;;;4943910;28;45956;-60
2023/05/07 04:14:39;;;;;;;0.50;0.50;;;22.00;55.10;;;;;;4970321;28;44994;-59
2023/05/07 04:17:05;;;;;;;0.88;0.68;;;22.00;55.00;;;;;;4971304;28;45229;-62
2023/05/07 04:19:33;;;;;;;0.70;0.60;;;22.00;55.00;;;;;;4948539;28;45085;-60
2023/05/07 04:21:58;;;;;;;0.70;0.70;;;22.00;55.10;;;;;;4944560;28;45995;-58
2023/05/07 04:24:24;;;;;;;0.70;0.70;;;22.00;55.10;;;;;;4968814;28;44748;-59
2023/05/07 04:26:51;;;;;;;0.50;0.50;;;22.00;55.00;;;;;;4961082;23;45074;-61
2023/05/07 04:29:16;;;;;;;0.60;0.60;;;22.00;55.10;;;;;;4984442;28;45203;-60
2023/05/07 04:31:44;;;;;;;0.60;0.60;;;22.00;55.10;;;;;;4957168;28;45982;-60
2023/05/07 04:34:10;;;;;;;0.70;0.70;;;22.00;55.10;;;;;;4944550;28;45083;-61
2023/05/07 04:36:37;;;;;;;0.60;0.60;;;22.00;55.10;;;;;;4955101;28;44905;-62
2023/05/07 04:39:03;;;;;;;0.60;0.60;;;22.00;55.20;;;;;;4969640;28;44861;-61
2023/05/07 04:41:29;;;;;;;0.50;0.50;;;21.90;55.10;;;;;;4978579;28;45702;-59
2023/05/07 04:43:55;;;;;;;0.70;0.70;;;21.90;55.20;;;;;;4985363;28;44978;-59
2023/05/07 04:46:20;;;;;;;0.85;0.60;;;22.00;55.20;;;;;;4977459;28;45135;-60
2023/05/07 04:48:46;;;;;;;0.77;0.77;;;21.90;55.20;;;;;;4981707;28;45130;-60
2023/05/07 04:51:11;;;;;;;0.60;0.60;;;21.90;55.20;;;;;;4976673;28;46174;-59
2023/05/07 04:53:37;;;;;;;0.85;0.85;;;21.90;55.20;;;;;;4974660;28;45056;-60
2023/05/07 04:56:03;;;;;;;0.77;0.77;;;21.90;55.30;;;;;;4977777;28;45186;-60
2023/05/07 04:58:31;;;;;;;0.80;0.80;;;21.90;55.20;;;;;;4966217;28;45325;-58
2023/05/07 05:00:57;;;;;;;0.52;0.52;;;22.00;55.30;;;;;;4957686;28;45089;-61
2023/05/07 05:03:23;;;;;;;0.55;0.55;;;21.90;55.30;;;;;;4977771;28;44837;-58
2023/05/07 05:05:49;;;;;;;0.93;0.63;;;21.90;55.30;;;;;;4977617;28;46042;-60
2023/05/07 05:08:15;;;;;;;0.70;0.70;;;21.90;55.30;;;;;;4967363;28;45315;-59
2023/05/07 05:10:41;;;;;;;0.50;0.50;;;22.00;55.30;;;;;;4978220;28;45908;-61
2023/05/07 05:13:07;;;;;;;0.50;0.50;;;21.90;55.30;;;;;;4966540;28;46139;-59
2023/05/07 05:15:33;;;;;;;0.98;0.68;;;22.00;55.30;;;;;;4976855;28;44877;-59
2023/05/07 05:17:59;;;;;;;0.70;0.60;;;22.00;55.20;;;;;;4967264;28;46222;-57
2023/05/07 05:20:24;;;;;;;0.60;0.50;;;22.00;55.10;;;;;;4982512;28;44986;-59
2023/05/07 05:22:50;;;;;;;0.70;0.70;;;22.00;55.20;;;;;;4987055;28;44825;-59
2023/05/07 05:25:15;;;;;;;0.73;0.70;;;22.10;55.20;;;;;;4983979;28;45018;-60
2023/05/07 05:27:41;;;;;;;0.63;0.63;;;22.00;55.20;;;;;;4970536;28;45329;-58
2023/05/07 05:30:10;;;;;;;1.40;0.80;;;22.00;55.20;;;;;;4985859;28;45111;-63
2023/05/07 05:32:35;;;;;;;0.80;0.70;;;22.00;55.30;;;;;;4931203;28;44947;-59
2023/05/07 05:35:01;;;;;;;0.50;0.50;;;21.90;55.30;;;;;;4982503;28;45090;-60
2023/05/07 05:37:27;;;;;;;0.57;0.57;;;21.90;55.20;;;;;;4979632;28;45394;-59
2023/05/07 05:39:54;;;;;;;0.60;0.60;;;21.90;55.30;;;;;;4984635;28;45934;-59
2023/05/07 05:42:20;;;;;;;0.70;0.63;;;21.90;55.30;;;;;;4967774;28;44691;-58
2023/05/07 05:44:45;;;;;;;0.50;0.50;;;22.00;55.30;;;;;;4985772;28;44714;-58
2023/05/07 05:47:11;;;;;;;0.80;0.77;;;22.00;55.30;;;;;;4976296;28;44756;-61
2023/05/07 05:49:37;;;;;;;0.63;0.55;;;21.90;55.30;;;;;;4969331;28;47130;-59
2023/05/07 05:52:03;;;;;;;0.70;0.63;;;21.90;55.30;;;;;;4946999;28;44817;-61
2023/05/07 05:54:28;;;;;;;0.52;0.52;;;22.00;55.30;;;;;;4983378;28;45029;-57
2023/05/07 05:56:54;;;;;;;1.02;0.73;;;21.90;55.30;;;;;;4976510;28;45152;-59
2023/05/07 05:59:19;;;;;;;0.75;0.70;;;21.90;55.40;;;;;;4951186;28;46860;-58
2023/05/07 06:01:45;;;;;;;0.50;0.50;;;21.90;55.30;;;;;;4956813;28;45054;-59
2023/05/07 06:04:10;;;;;;;0.57;0.57;;;21.90;55.30;;;;;;4967068;28;44945;-60
2023/05/07 06:06:36;;;;;;;0.88;0.80;;;22.00;55.30;;;;;;4980795;28;45620;-60
2023/05/07 06:09:02;;;;;;;0.90;0.88;;;22.00;55.30;;;;;;4974749;28;46182;-60
2023/05/07 06:11:27;;;;;;;0.60;0.60;;;22.00;55.30;;;;;;4947110;28;45441;-61
2023/05/07 06:13:53;;;;;;;1.02;0.80;;;22.00;55.30;;;;;;4984403;28;44890;-59
2023/05/07 06:16:18;;;;;;;0.50;0.50;;;22.00;55.40;;;;;;4975964;28;44721;-60
2023/05/07 06:18:46;;;;;;;0.70;0.70;;;22.00;55.40;;;;;;4970600;28;45048;-61
2023/05/07 06:21:12;;;;;;;0.65;0.60;;;22.00;55.40;;;;;;4963423;28;45287;-60
2023/05/07 06:23:40;;;;;;;0.60;0.60;;;22.00;55.40;;;;;;4984004;28;45121;-61
2023/05/07 06:26:06;;;;;;;0.60;0.52;;;22.00;55.40;;;;;;4972428;28;44792;-59
2023/05/07 06:28:35;;;;;;;0.70;0.55;;;22.00;55.40;;;;;;4963216;28;46123;-59
2023/05/07 06:31:21;;;;;;;0.52;0.50;;;22.00;55.40;;;;;;4974432;28;44814;-60
2023/05/07 06:33:47;;;;;;;0.55;0.55;;;22.00;55.70;;;;;;4978793;28;45209;-57
2023/05/07 06:36:13;;;;;;;0.50;0.50;;;22.00;55.40;;;;;;4979027;28;44984;-57
2023/05/07 06:38:38;;;;;;;0.70;0.60;;;22.00;55.40;;;;;;4963533;28;46316;-58
2023/05/07 06:41:05;;;;;;;0.90;0.70;;;22.00;55.40;;;;;;4943478;28;45140;-60
2023/05/07 06:43:31;;;;;;;0.85;0.60;;;22.00;55.50;;;;;;4980862;28;44819;-58
2023/05/07 06:45:56;;;;;;;0.60;0.55;;;22.00;55.50;;;;;;4974453;28;44898;-59
2023/05/07 06:48:22;;;;;;;0.70;0.70;;;22.00;55.40;;;;;;4947171;28;46825;-59
2023/05/07 06:50:47;;;;;;;0.50;0.50;;;22.00;55.50;;;;;;4976695;28;44900;-60
2023/05/07 06:53:13;;;;;;;0.50;0.50;;;22.00;55.50;;;;;;4967905;28;45704;-58
2023/05/07 06:55:39;;;;;;;0.93;0.85;;;22.00;55.50;;;;;;4981084;28;45036;-58
2023/05/07 06:58:05;;;;;;;0.63;0.63;;;22.10;55.60;;;;;;4963807;28;45180;-61
2023/05/07 07:00:31;;;;;;;0.60;0.60;;;22.00;55.50;;;;;;4956513;28;44944;-59
2023/05/07 07:02:57;;;;;;;0.50;0.50;;;22.10;55.60;;;;;;4953618;28;45348;-60
2023/05/07 07:05:22;;;;;;;0.63;0.60;;;22.00;55.50;;;;;;4960956;28;44950;-60
2023/05/07 07:07:52;;;;;;;0.60;0.60;;;22.10;55.50;;;;;;4963582;28;46153;-61
2023/05/07 07:10:19;;;;;;;0.75;0.60;;;22.10;55.40;;;;;;4977921;28;45556;-59
2023/05/07 07:12:46;;;;;;;0.73;0.70;;;22.10;55.40;;;;;;4966112;28;44954;-57
2023/05/07 07:15:15;;;;;;;0.60;0.60;;;22.10;55.50;;;;;;4958477;28;44654;-62
2023/05/07 07:17:41;;;;;;;0.45;0.45;;;22.10;55.50;;;;;;4976935;28;45919;-60
2023/05/07 07:20:07;;;;;;;0.65;0.65;;;22.10;55.40;;;;;;4958499;28;44886;-62
2023/05/07 07:22:32;;;;;;;0.80;0.80;;;22.10;55.40;;;;;;4960153;28;44997;-60
2023/05/07 07:24:58;;;;;;;0.85;0.85;;;22.10;55.30;;;;;;4978306;28;44916;-58
2023/05/07 07:27:23;;;;;;;0.80;0.80;;;22.20;55.30;;;;;;4977889;28;45139;-59
2023/05/07 07:29:49;;;;;;;0.50;0.50;;;22.20;55.20;;;;;;4965463;28;44911;-62
2023/05/07 07:32:15;;;;;;;0.60;0.60;;;22.20;55.30;;;;;;4938350;28;45008;-60
2023/05/07 07:34:40;;;;;;;0.95;0.70;;;22.20;55.20;;;;;;4975101;28;45014;-58
2023/05/07 07:37:06;;;;;;;0.70;0.70;;;22.20;55.20;;;;;;4976514;28;46146;-60
2023/05/07 07:39:32;;;;;;;0.90;0.90;;;22.20;55.20;;;;;;4965880;28;45100;-59
2023/05/07 07:41:58;;;;;;;1.02;0.80;;;22.20;55.20;;;;;;4972511;28;46276;-60
2023/05/07 07:44:23;;;;;;;0.80;0.70;;;22.10;55.30;;;;;;4981083;28;44946;-58
2023/05/07 07:46:49;;;;;;;0.60;0.60;;;22.20;55.20;;;;;;4968690;28;45288;-60
2023/05/07 07:49:15;;;;;;;0.93;0.65;;;22.20;55.10;;;;;;4959931;28;44855;-60
2023/05/07 07:51:40;;;;;;;0.70;0.70;;;22.30;55.20;;;;;;4946556;28;45142;-61
2023/05/07 07:54:06;;;;;;;0.88;0.80;;;22.30;55.20;;;;;;4975819;28;45456;-59
2023/05/07 07:56:33;;;;;;;0.90;0.90;;;22.30;55.20;;;;;;4965945;28;46800;-58
2023/05/07 07:58:59;;;;;;;0.70;0.57;;;22.30;55.20;;;;;;4985963;28;44904;-60
2023/05/07 08:01:24;;;;;;;0.80;0.63;;;22.30;55.20;;;;;;4951445;28;45473;-60
2023/05/07 08:03:50;;;;;;;0.52;0.52;;;22.30;55.20;;;;;;4977292;28;45358;-58
2023/05/07 08:06:15;;;;;;;0.68;0.68;;;22.30;55.20;;;;;;4973101;28;45036;-60
2023/05/07 08:08:41;;;;;;;0.90;0.80;;;22.30;55.10;;;;;;4978550;28;45584;-57
2023/05/07 08:11:06;;;;;;;0.90;0.90;;;22.30;55.20;;;;;;4974220;28;45460;-56
2023/05/07 08:13:32;;;;;;;0.80;0.80;;;22.30;55.20;;;;;;4980741;28;45295;-59
2023/05/07 08:15:57;;;;;;;0.65;0.60;;;22.30;55.10;;;;;;4946129;28;47102;-56
2023/05/07 08:18:24;;;;;;;1.15;0.70;;;22.40;55.20;;;;;;4975944;28;44622;-57
2023/05/07 08:20:50;;;;;;;0.80;0.80;;;22.30;55.10;;;;;;4973817;28;45535;-58
2023/05/07 08:23:15;;;;;;;0.70;0.70;;;22.40;55.10;;;;;;4979023;28;45489;-59
2023/05/07 08:25:42;;;;;;;0.80;0.80;;;22.40;55.10;;;;;;4975367;28;46163;-59
2023/05/07 08:28:08;;;;;;;0.77;0.70;;;22.40;55.10;;;;;;4980562;28;45018;-60
2023/05/07 08:30:33;;;;;;;0.70;0.70;;;22.40;55.10;;;;;;4973316;28;44976;-58
2023/05/07 08:33:00;;;;;;;0.70;0.70;;;22.40;55.10;;;;;;4963179;28;45113;-62
2023/05/07 08:35:26;;;;;;;0.80;0.73;;;22.40;55.10;;;;;;4958804;28;44977;-58
2023/05/07 08:37:52;;;;;;;0.80;0.80;;;22.40;55.00;;;;;;4950680;28;45069;-59
2023/05/07 08:40:18;;;;;;;1.02;0.95;;;22.50;55.10;;;;;;4960531;28;44769;-62
2023/05/07 08:42:44;;;;;;;0.80;0.80;;;22.40;55.00;;;;;;4940010;28;45455;-60
2023/05/07 08:45:11;;;;;;;0.82;0.80;;;22.50;55.00;;;;;;4972268;28;46165;-62
2023/05/07 08:47:46;;;;;;;0.90;0.90;;;22.50;54.90;;;;;;4956143;28;45106;-61
2023/05/07 08:50:12;;;;;;;0.70;0.70;;;22.50;54.90;;;;;;4949901;28;44922;-61
2023/05/07 08:52:41;;;;;;;0.80;0.80;;;22.60;55.00;;;;;;4945309;28;45256;-61
2023/05/07 08:55:08;;;;;;;1.20;0.90;;;22.50;54.90;;;;;;4961440;28;45163;-62
2023/05/07 08:57:34;;;;;;;0.60;0.60;;;22.50;54.90;;;;;;4937800;28;44806;-58
2023/05/07 08:59:59;;;;;;;0.70;0.70;;;22.50;54.80;;;;;;4984062;28;44851;-60
2023/05/07 09:02:25;;;;;;;0.82;0.70;;;22.50;54.80;;;;;;4971418;28;44893;-60
2023/05/07 09:04:50;;;;;;;0.90;0.90;;;22.60;54.80;;;;;;4967143;28;44858;-60
2023/05/07 09:07:16;;;;;;;1.02;0.82;;;22.60;54.80;;;;;;4978304;28;45207;-58
2023/05/07 09:09:43;;;;;;;0.73;0.70;;;22.60;54.80;;;;;;4951743;28;44786;-59
2023/05/07 09:12:09;;;;;;;1.38;0.95;;;22.60;54.70;;;;;;4965217;28;45276;-58
2023/05/07 09:14:35;;;;;;;0.80;0.80;;;22.60;54.70;;;;;;4966320;28;45908;-57
2023/05/07 09:17:00;;;;;;;1.08;1.00;;;22.70;54.70;;;;;;4974058;28;44999;-58
2023/05/07 09:19:26;;;;;;;1.05;0.70;;;22.70;54.70;;;;;;4949094;28;45220;-61
2023/05/07 09:22:00;;;;;;;0.95;0.90;;;22.70;54.70;;;;;;4943935;28;45073;-62
2023/05/07 09:24:25;;;;;;;0.52;0.52;;;22.70;54.70;;;;;;4968636;28;46762;-60
2023/05/07 09:26:51;;;;;;;1.00;0.85;;;22.70;54.60;;;;;;4978307;28;45022;-60
2023/05/07 09:29:17;;;;;;;0.70;0.68;;;22.80;54.70;;;;;;4971901;28;44895;-60
2023/05/07 09:31:43;;;;;;;0.80;0.75;;;22.70;54.60;;;;;;4937731;28;48307;-57
2023/05/07 09:34:08;;;;;;;0.82;0.75;;;22.70;54.60;;;;;;4976101;28;45793;-60
2023/05/07 09:36:34;;;;;;;0.60;0.60;;;22.80;54.60;;;;;;4978650;28;44872;-62
2023/05/07 09:39:00;;;;;;;0.68;0.68;;;22.80;54.60;;;;;;4948927;28;45312;-60
2023/05/07 09:41:26;;;;;;;0.70;0.70;;;22.80;54.60;;;;;;4953206;28;45643;-61
2023/05/07 09:43:54;;;;;;;0.95;0.90;;;22.80;54.50;;;;;;4948023;28;46978;-59
2023/05/07 09:46:24;;;;;;;0.82;0.75;;;22.80;54.50;;;;;;4955519;28;45422;-61
2023/05/07 09:48:49;;;;;;;2.47;0.70;;;22.80;54.40;;;;;;4966805;28;44836;-61
2023/05/07 09:51:21;;;;;;;1.02;0.95;;;22.90;54.50;;;;;;4958856;28;45608;-61
2023/05/07 09:53:47;;;;;;;1.00;0.88;;;22.90;54.50;;;;;;4981193;28;44853;-61
2023/05/07 09:56:14;;;;;;;0.88;0.88;;;22.90;54.40;;;;;;4962594;28;45070;-60
2023/05/07 09:58:40;;;;;;;0.45;0.45;;;22.90;54.40;;;;;;4967865;28;44962;-58
2023/05/07 10:01:06;;;;;;;0.80;0.80;;;22.90;54.40;;;;;;4953929;28;45127;-60
2023/05/07 10:03:32;;;;;;;0.85;0.85;;;22.90;54.40;;;;;;4965713;28;46079;-60
2023/05/07 10:05:58;;;;;;;1.08;0.88;;;23.00;54.40;;;;;;4964169;28;44629;-61
2023/05/07 10:08:24;;;;;;;1.15;1.05;;;23.00;54.50;;;;;;4941683;28;45098;-61
2023/05/07 10:10:50;;;;;;;1.02;0.93;;;23.00;54.30;;;;;;4975966;28;45111;-61
2023/05/07 10:13:16;;;;;;;0.80;0.80;;;23.00;54.30;;;;;;4963613;28;46060;-59
2023/05/07 10:15:42;;;;;;;0.70;0.70;;;23.00;54.30;;;;;;4952722;28;45118;-61
2023/05/07 10:18:07;;;;;;;1.13;0.80;;;23.00;54.30;;;;;;4964918;28;45149;-61
2023/05/07 10:20:33;;;;;;;0.90;0.80;;;23.00;54.20;;;;;;4959301;28;45985;-59
2023/05/07 10:22:59;;;;;;;0.80;0.80;;;23.10;54.20;;;;;;4968205;28;45931;-60
2023/05/07 10:25:31;;;;;;;1.10;1.00;;;23.10;54.30;;;;;;4944109;28;45133;-59
2023/05/07 10:28:05;;;;;;;0.83;0.83;;;23.10;54.20;;;;;;4929687;28;44680;-61
2023/05/07 10:30:48;;;;;;;0.75;0.73;;;23.20;54.20;;;;;;4933786;28;46536;-62
2023/05/07 10:33:16;;;;;;;0.77;0.77;;;23.10;54.20;;;;;;4959491;28;46434;-61
2023/05/07 10:35:43;;;;;;;0.70;0.70;;;23.10;54.30;;;;;;4921716;28;44647;-58
2023/05/07 10:38:09;;;;;;;1.00;1.00;;;23.20;54.30;;;;;;4929419;28;44965;-59
2023/05/07 10:40:34;;;;;;;0.80;0.80;;;23.20;54.30;;;;;;4924086;28;44662;-61
2023/05/07 10:43:02;;;;;;;0.73;0.73;;;23.20;54.30;;;;;;4943917;28;46096;-61
2023/05/07 10:45:28;;;;;;;1.00;0.95;;;23.20;54.30;;;;;;4953067;28;45103;-63
2023/05/07 10:48:10;;;;;;;0.80;0.80;;;23.20;54.30;;;;;;4918207;28;45226;-58
2023/05/07 10:50:36;;;;;;;0.88;0.82;;;23.20;54.30;;;;;;4954242;28;45079;-60
2023/05/07 10:53:20;;;;;;;0.80;0.70;;;23.20;54.20;;;;;;4958307;28;46723;-59
2023/05/07 10:55:50;;;;;;;0.98;0.75;;;23.30;54.20;;;;;;4938703;28;45631;-61
2023/05/07 10:58:29;;;;;;;1.10;1.00;;;23.30;54.20;;;;;;4945341;28;45388;-60
2023/05/07 11:00:56;;;;;;;2.92;1.25;;;23.30;54.20;;;;;;4925744;28;45455;-61
2023/05/07 11:03:22;;;;;;;1.33;1.23;;;23.30;53.70;;;;;;4940990;28;45961;-61
2023/05/07 11:05:48;;;;;;;1.30;1.20;;;23.40;53.50;;;;;;4950784;28;44871;-60
2023/05/07 11:08:14;;;;;;;2.38;1.55;;;23.40;53.20;;;;;;4928274;28;44750;-61
2023/05/07 11:10:56;;;;;;;1.80;1.45;;;23.50;53.20;;;;;;4954087;28;45232;-62
2023/05/07 11:13:41;;;;;;;1.90;1.58;;;23.50;52.70;;;;;;4944297;28;46000;-60
2023/05/07 11:16:20;;;;;;;6.47;1.35;;;23.50;52.60;;;;;;4950671;28;45020;-60
2023/05/07 11:18:50;;;;;;;1.58;1.48;;;23.50;52.60;;;;;;4940257;28;45153;-59
2023/05/07 11:21:37;;;;;;;2.22;1.85;;;23.60;52.80;;;;;;4919069;28;45355;-60
2023/05/07 11:24:04;;;;;;;2.38;1.80;;;23.60;52.40;;;;;;4962515;28;46677;-61
2023/05/07 11:26:31;;;;;;;2.05;1.70;;;23.60;52.50;;;;;;4941659;28;45596;-58
2023/05/07 11:28:57;;;;;;;5.00;2.50;;;23.60;52.40;;;;;;4944816;28;45259;-62
2023/05/07 11:31:24;;;;;;;4.97;2.17;;;23.60;52.30;;;;;;4937898;28;45178;-58
2023/05/07 11:33:51;;;;;;;3.15;1.70;;;23.70;52.40;;;;;;4955339;28;47013;-60
2023/05/07 11:36:16;;;;;;;2.60;2.05;;;23.70;52.40;;;;;;4956035;28;45226;-58
2023/05/07 11:38:42;;;;;;;2.97;2.10;;;23.70;52.30;;;;;;4927136;28;45220;-60
2023/05/07 11:41:08;;;;;;;3.17;2.10;;;23.70;52.20;;;;;;4941083;28;45183;-60
2023/05/07 11:43:35;;;;;;;3.42;2.28;;;23.70;52.10;;;;;;4945141;28;45335;-58
2023/05/07 11:46:11;;;;;;;2.35;2.08;;;23.70;51.60;;;;;;4936795;28;44952;-60
2023/05/07 11:48:36;;;;;;;3.15;2.10;;;23.70;50.90;;;;;;4929802;28;45156;-58
2023/05/07 11:51:03;;;;;;;2.90;2.50;;;23.80;51.10;;;;;;4924287;28;44959;-61
2023/05/07 11:53:39;;;;;;;3.17;2.35;;;23.80;51.10;;;;;;4944356;28;48487;-60
2023/05/07 11:56:12;;;;;;;5.38;2.50;;;23.80;50.50;;;;;;4956160;28;45273;-63
2023/05/07 11:58:38;;;;;;;2.63;2.20;;;23.80;50.40;;;;;;4940537;28;45218;-61
2023/05/07 12:01:04;;;;;;;2.78;2.42;;;23.80;50.70;;;;;;4952859;28;45062;-61
2023/05/07 12:03:32;;;;;;;4.40;2.42;;;23.80;50.70;;;;;;4928811;28;46088;-59
2023/05/07 12:05:59;;;;;;;3.28;2.35;;;23.80;50.70;;;;;;4926006;28;44861;-61
2023/05/07 12:08:25;;;;;;;3.05;2.50;;;23.90;50.70;;;;;;4959833;28;45076;-61
2023/05/07 12:10:51;;;;;;;3.92;2.78;;;23.80;50.70;;;;;;4927567;28;44932;-60
2023/05/07 12:13:24;;;;;;;3.97;2.65;;;23.80;50.80;;;;;;4945339;28;46332;-58
2023/05/07 12:15:53;;;;;;;5.28;2.40;;;23.90;50.80;;;;;;4957145;28;44927;-60
2023/05/07 12:18:19;;;;;;;4.00;2.78;;;23.80;50.90;;;;;;4941830;28;44957;-60
2023/05/07 12:20:45;;;;;;;4.25;2.65;;;23.90;51.00;;;;;;4956887;28;44830;-60
2023/05/07 12:23:10;;;;;;;3.75;2.35;;;23.90;51.00;;;;;;4959687;28;45639;-60
2023/05/07 12:25:37;;;;;;;2.97;2.65;;;23.90;51.00;;;;;;4928168;28;45382;-60
2023/05/07 12:28:04;;;;;;;3.28;2.58;;;23.90;51.10;;;;;;4932775;28;45301;-59
2023/05/07 12:30:31;;;;;;;3.47;2.47;;;23.90;51.00;;;;;;4955752;28;45469;-61
2023/05/07 12:32:57;;;;;;;2.00;1.80;;;24.00;51.00;;;;;;4950799;28;45881;-59
2023/05/07 12:35:29;;;;;;;2.75;2.30;;;24.00;50.90;;;;;;4939427;28;44612;-61
2023/05/07 12:37:59;;;;;;;3.60;2.27;;;24.00;50.80;;;;;;4944099;28;45057;-60
2023/05/07 12:40:45;;;;;;;4.78;2.55;;;24.00;50.80;;;;;;4925862;28;45199;-58
2023/05/07 12:43:20;;;;;;;3.40;2.10;;;24.00;50.80;;;;;;4944019;28;46208;-60
2023/05/07 12:45:47;;;;;;;3.05;2.42;;;24.00;50.60;;;;;;4935144;28;44944;-58
2023/05/07 12:48:12;;;;;;;2.45;1.98;;;24.00;50.70;;;;;;4959473;28;44705;-59
2023/05/07 12:50:38;;;;;;;2.25;1.85;;;24.00;51.40;;;;;;4958272;28;44922;-59
2023/05/07 12:53:06;;;;;;;1.73;1.55;;;24.00;50.70;;;;;;4944559;28;45955;-60
2023/05/07 12:55:32;;;;;;;2.72;1.80;;;24.00;50.70;;;;;;4939172;28;45139;-60
2023/05/07 12:58:00;;;;;;;5.18;1.80;;;24.00;50.70;;;;;;4944023;28;44876;-60
2023/05/07 13:00:38;;;;;;;4.28;1.88;;;24.00;50.60;;;;;;4955151;28;44705;-60
2023/05/07 13:03:04;;;;;;;2.38;1.75;;;24.10;50.00;;;;;;4958733;28;46241;-58
2023/05/07 13:05:30;;;;;;;4.30;1.83;;;24.10;50.20;;;;;;4957504;28;45099;-61
2023/05/07 13:07:56;;;;;;;2.47;1.77;;;24.10;50.00;;;;;;4957122;28;45466;-59
2023/05/07 13:10:23;;;;;;;3.47;1.60;;;24.10;49.80;;;;;;4954045;28;44857;-61
2023/05/07 13:12:49;;;;;;;3.67;1.98;;;24.10;49.70;;;;;;4944829;28;46294;-60
2023/05/07 13:15:15;;;;;;;2.53;1.83;;;24.10;49.50;;;;;;4927253;28;45205;-60
2023/05/07 13:17:40;;;;;;;2.47;1.80;;;24.10;49.50;;;;;;4928764;28;45881;-59
2023/05/07 13:20:09;;;;;;;2.55;2.08;;;24.10;49.50;;;;;;4955836;28;45026;-58
2023/05/07 13:22:35;;;;;;;3.92;1.80;;;23.90;49.50;;;;;;4918506;28;45614;-59
2023/05/07 13:25:01;;;;;;;2.10;1.77;;;24.10;49.40;;;;;;4963222;28;44862;-59
2023/05/07 13:27:27;;;;;;;2.38;1.98;;;24.10;49.30;;;;;;4942270;28;44763;-58
2023/05/07 13:29:52;;;;;;;2.17;1.60;;;24.10;49.30;;;;;;4934200;28;44856;-60
2023/05/07 13:32:18;;;;;;;3.88;2.20;;;24.10;49.20;;;;;;4950185;28;46040;-60
2023/05/07 13:34:43;;;;;;;1.75;1.65;;;24.10;49.20;;;;;;4945765;28;44616;-59
2023/05/07 13:37:09;;;;;;;2.17;1.65;;;24.10;49.10;;;;;;4941305;28;44968;-60
2023/05/07 13:39:35;;;;;;;2.10;1.73;;;24.10;49.20;;;;;;4938671;28;44855;-59
2023/05/07 13:42:00;;;;;;;2.95;1.83;;;24.10;49.10;;;;;;4960017;28;45373;-59
2023/05/07 13:44:26;;;;;;;2.15;1.77;;;24.10;49.10;;;;;;4947766;28;45223;-60
2023/05/07 13:46:52;;;;;;;4.28;1.80;;;24.20;49.20;;;;;;4934885;28;45152;-58
2023/05/07 13:49:17;;;;;;;3.22;1.67;;;24.20;49.20;;;;;;4948889;28;44878;-60
2023/05/07 13:51:43;;;;;;;2.13;1.85;;;24.20;49.30;;;;;;4957888;28;45553;-61
2023/05/07 13:54:08;;;;;;;4.50;1.73;;;24.30;49.50;;;;;;4963065;28;45771;-60
2023/05/07 13:56:35;;;;;;;1.92;1.70;;;24.20;49.50;;;;;;4939803;28;44713;-58
2023/05/07 13:59:00;;;;;;;2.42;1.98;;;24.20;49.60;;;;;;4962796;28;44892;-57
2023/05/07 14:01:26;;;;;;;3.35;1.92;;;24.20;49.60;;;;;;4927305;28;45333;-60
2023/05/07 14:03:51;;;;;;;1.92;1.73;;;24.20;49.70;;;;;;4963483;28;45320;-60
2023/05/07 14:06:17;;;;;;;2.63;1.92;;;24.30;49.80;;;;;;4957304;28;45169;-59
2023/05/07 14:08:42;;;;;;;2.20;1.70;;;24.30;49.60;;;;;;4949548;28;45047;-60
2023/05/07 14:11:08;;;;;;;2.88;1.75;;;24.30;49.60;;;;;;4943723;28;46384;-60
2023/05/07 14:13:34;;;;;;;2.80;1.85;;;24.30;49.70;;;;;;4962162;28;45030;-59
2023/05/07 14:16:00;;;;;;;2.40;2.10;;;24.30;49.60;;;;;;4944938;28;44811;-58
2023/05/07 14:18:26;;;;;;;3.15;1.90;;;24.30;49.70;;;;;;4947867;28;44874;-59
2023/05/07 14:20:52;;;;;;;2.53;1.73;;;24.30;49.70;;;;;;4941230;28;46454;-61
2023/05/07 14:23:19;;;;;;;2.38;1.77;;;24.30;49.70;;;;;;4928474;28;44793;-60
2023/05/07 14:25:45;;;;;;;2.35;2.15;;;24.30;49.70;;;;;;4957479;28;44730;-60
2023/05/07 14:28:11;;;;;;;3.90;2.00;;;24.30;49.80;;;;;;4947913;28;45331;-60
2023/05/07 14:30:36;;;;;;;2.20;1.98;;;24.30;49.80;;;;;;4953108;28;45556;-59
2023/05/07 14:33:02;;;;;;;4.68;2.30;;;24.30;49.60;;;;;;4949396;28;45029;-59
2023/05/07 14:35:27;;;;;;;3.67;2.00;;;24.30;49.60;;;;;;4955969;28;44893;-61
2023/05/07 14:37:53;;;;;;;2.35;2.10;;;24.30;49.70;;;;;;4964160;28;45171;-60
2023/05/07 14:40:19;;;;;;;2.85;2.17;;;24.30;49.50;;;;;;4959084;28;45435;-59
2023/05/07 14:42:44;;;;;;;1.77;1.67;;;24.30;49.50;;;;;;4948133;28;45914;-59
2023/05/07 14:45:10;;;;;;;3.08;2.10;;;24.30;49.50;;;;;;4942222;28;45243;-60
2023/05/07 14:47:36;;;;;;;2.33;1.90;;;24.30;49.40;;;;;;4922976;28;44758;-59
2023/05/07 14:50:04;;;;;;;2.45;2.15;;;24.30;49.30;;;;;;4946070;28;46391;-59
2023/05/07 14:52:30;;;;;;;2.20;1.88;;;24.30;49.40;;;;;;4927180;28;44932;-59
2023/05/07 14:54:56;;;;;;;2.47;2.10;;;24.30;49.30;;;;;;4964155;28;44928;-60
2023/05/07 14:57:21;;;;;;;5.57;1.90;;;24.30;49.20;;;;;;4960584;28;44916;-60
2023/05/07 14:59:47;;;;;;;2.42;1.98;;;24.30;49.20;;;;;;4933409;28;46875;-59
2023/05/07 15:02:12;;;;;;;3.38;2.45;;;24.30;49.10;;;;;;4955404;28;45239;-61
2023/05/07 15:04:45;;;;;;;2.38;2.10;;;24.30;48.90;;;;;;4949181;28;44910;-55
2023/05/07 15:07:17;;;;;;;2.00;1.90;;;24.30;48.80;;;;;;4943807;28;45671;-60
2023/05/07 15:09:43;;;;;;;3.55;2.05;;;24.30;48.90;;;;;;4963028;28;46164;-58
2023/05/07 15:12:08;;;;;;;2.20;2.00;;;24.30;49.00;;;;;;4931479;28;44908;-58
2023/05/07 15:14:34;;;;;;;4.28;2.10;;;24.30;48.80;;;;;;4946658;28;45191;-59
2023/05/07 15:17:00;;;;;;;4.30;2.20;;;24.30;48.80;;;;;;4935965;28;46653;-61
2023/05/07 15:19:28;;;;;;;4.22;2.30;;;24.30;48.80;;;;;;4963035;28;45741;-59
2023/05/07 15:21:56;;;;;;;2.63;2.10;;;24.40;48.80;;;;;;4940678;28;44662;-60
2023/05/07 15:24:22;;;;;;;4.07;2.30;;;24.30;48.80;;;;;;4945802;28;45326;-61
2023/05/07 15:26:48;;;;;;;2.30;2.08;;;24.30;48.70;;;;;;4941235;28;44869;-60
2023/05/07 15:29:13;;;;;;;2.97;2.08;;;24.40;48.60;;;;;;4945587;28;45458;-58
2023/05/07 15:31:39;;;;;;;2.90;2.10;;;24.30;48.60;;;;;;4938030;28;45008;-61
2023/05/07 15:34:04;;;;;;;2.92;2.35;;;24.30;48.60;;;;;;4962903;28;45042;-60
2023/05/07 15:36:30;;;;;;;3.08;2.22;;;24.30;48.60;;;;;;4931011;28;44905;-62
2023/05/07 15:38:56;;;;;;;2.63;2.30;;;24.30;48.70;;;;;;4946057;28;46656;-58
2023/05/07 15:41:22;;;;;;;1.95;1.75;;;24.10;48.70;;;;;;4959279;28;44832;-63
2023/05/07 15:43:49;;;;;;;3.05;1.88;;;24.30;48.80;;;;;;4944129;28;44939;-57
2023/05/07 15:46:23;;;;;;;2.38;2.10;;;24.20;49.50;;;;;;4956416;28;44928;-58